sensor_id;sensor_type;location;lat;lon;timestamp;temperature;humidity
33881;DHT22;20172;47.530;10.256;2023-05-27T00:02:19;14.80;99.90
33881;DHT22;20172;47.530;10.256;2023-05-27T00:04:45;14.80;99.90
33881;DHT22;20172;47.530;10.256;2023-05-27T00:07:11;14.80;99.90
33881;DHT22;20172;47.530;10.256;2023-05-27T00:09:36;14.70;99.90
33881;DHT22;20172;47.530;10.256;2023-05-27T00:12:02;14.70;99.90
33881;DHT22;20172;47.530;10.256;2023-05-27T00:14:27;14.60;99.90
33881;DHT22;20172;47.530;10.256;2023-05-27T00:16:53;14.60;99.90
33881;DHT22;20172;47.530;10.256;2023-05-27T00:19:20;14.60;99.90
33881;DHT22;20172;47.530;10.256;2023-05-27T00:21:45;14.70;99.90
33881;DHT22;20172;47.530;10.256;2023-05-27T00:24:11;14.60;99.90
33881;DHT22;20172;47.530;10.256;2023-05-27T00:26:36;14.50;99.90
33881;DHT22;20172;47.530;10.256;2023-05-27T00:29:04;14.40;99.90
33881;DHT22;20172;47.530;10.256;2023-05-27T00:31:29;14.30;99.90
33881;DHT22;20172;47.530;10.256;2023-05-27T00:33:55;14.40;99.90
33881;DHT22;20172;47.530;10.256;2023-05-27T00:36:20;14.40;99.90
33881;DHT22;20172;47.530;10.256;2023-05-27T00:38:46;14.40;99.90
33881;DHT22;20172;47.530;10.256;2023-05-27T00:41:12;14.50;99.90
33881;DHT22;20172;47.530;10.256;2023-05-27T00:43:38;14.60;99.90
33881;DHT22;20172;47.530;10.256;2023-05-27T00:46:04;14.60;99.90
33881;DHT22;20172;47.530;10.256;2023-05-27T00:48:32;14.60;99.90
33881;DHT22;20172;47.530;10.256;2023-05-27T00:50:58;14.60;99.90
33881;DHT22;20172;47.530;10.256;2023-05-27T00:53:24;14.60;99.90
33881;DHT22;20172;47.530;10.256;2023-05-27T00:55:53;14.50;99.90
33881;DHT22;20172;47.530;10.256;2023-05-27T00:58:21;14.40;99.90
33881;DHT22;20172;47.530;10.256;2023-05-27T01:00:48;14.40;99.90
33881;DHT22;20172;47.530;10.256;2023-05-27T01:03:14;14.40;99.90
33881;DHT22;20172;47.530;10.256;2023-05-27T01:05:40;14.30;99.90
33881;DHT22;20172;47.530;10.256;2023-05-27T01:10:36;14.30;99.90
33881;DHT22;20172;47.530;10.256;2023-05-27T01:15:32;14.30;99.90
33881;DHT22;20172;47.530;10.256;2023-05-27T01:17:59;14.30;99.90
33881;DHT22;20172;47.530;10.256;2023-05-27T01:20:26;14.30;99.90
33881;DHT22;20172;47.530;10.256;2023-05-27T01:22:53;14.30;99.90
33881;DHT22;20172;47.530;10.256;2023-05-27T01:25:19;14.20;99.90
33881;DHT22;20172;47.530;10.256;2023-05-27T01:27:45;14.00;99.90
33881;DHT22;20172;47.530;10.256;2023-05-27T01:30:11;13.90;99.90
33881;DHT22;20172;47.530;10.256;2023-05-27T01:32:46;13.80;99.90
33881;DHT22;20172;47.530;10.256;2023-05-27T01:35:16;13.60;99.90
33881;DHT22;20172;47.530;10.256;2023-05-27T01:37:43;13.60;99.90
33881;DHT22;20172;47.530;10.256;2023-05-27T01:40:09;13.60;99.90
33881;DHT22;20172;47.530;10.256;2023-05-27T01:42:36;13.70;99.90
33881;DHT22;20172;47.530;10.256;2023-05-27T01:45:07;13.60;99.90
33881;DHT22;20172;47.530;10.256;2023-05-27T01:47:33;13.60;99.90
33881;DHT22;20172;47.530;10.256;2023-05-27T01:49:58;13.60;99.90
33881;DHT22;20172;47.530;10.256;2023-05-27T01:52:24;13.60;99.90
33881;DHT22;20172;47.530;10.256;2023-05-27T01:54:50;13.60;99.90
33881;DHT22;20172;47.530;10.256;2023-05-27T01:57:16;13.70;99.90
33881;DHT22;20172;47.530;10.256;2023-05-27T01:59:41;13.60;99.90
33881;DHT22;20172;47.530;10.256;2023-05-27T02:02:07;13.70;99.90
33881;DHT22;20172;47.530;10.256;2023-05-27T02:04:32;13.70;99.90
33881;DHT22;20172;47.530;10.256;2023-05-27T02:06:58;13.70;99.90
33881;DHT22;20172;47.530;10.256;2023-05-27T02:09:23;13.80;99.90
33881;DHT22;20172;47.530;10.256;2023-05-27T02:11:49;13.80;99.90
33881;DHT22;20172;47.530;10.256;2023-05-27T02:14:14;13.80;99.90
33881;DHT22;20172;47.530;10.256;2023-05-27T02:16:40;13.80;99.90
33881;DHT22;20172;47.530;10.256;2023-05-27T02:19:05;13.70;99.90
33881;DHT22;20172;47.530;10.256;2023-05-27T02:21:31;13.60;99.90
33881;DHT22;20172;47.530;10.256;2023-05-27T02:23:57;13.50;99.90
33881;DHT22;20172;47.530;10.256;2023-05-27T02:26:22;13.50;99.90
33881;DHT22;20172;47.530;10.256;2023-05-27T02:28:48;13.40;99.90
33881;DHT22;20172;47.530;10.256;2023-05-27T02:31:14;13.40;99.90
33881;DHT22;20172;47.530;10.256;2023-05-27T02:33:39;13.30;99.90
33881;DHT22;20172;47.530;10.256;2023-05-27T02:36:05;13.30;99.90
33881;DHT22;20172;47.530;10.256;2023-05-27T02:38:31;13.20;99.90
33881;DHT22;20172;47.530;10.256;2023-05-27T02:40:57;13.20;99.90
33881;DHT22;20172;47.530;10.256;2023-05-27T02:43:22;13.20;99.90
33881;DHT22;20172;47.530;10.256;2023-05-27T02:45:48;13.10;99.90
33881;DHT22;20172;47.530;10.256;2023-05-27T02:48:13;13.10;99.90
33881;DHT22;20172;47.530;10.256;2023-05-27T02:50:39;13.00;99.90
33881;DHT22;20172;47.530;10.256;2023-05-27T02:53:05;12.90;99.90
33881;DHT22;20172;47.530;10.256;2023-05-27T02:55:30;12.90;99.90
33881;DHT22;20172;47.530;10.256;2023-05-27T02:57:56;12.80;99.90
33881;DHT22;20172;47.530;10.256;2023-05-27T03:00:21;12.80;99.90
33881;DHT22;20172;47.530;10.256;2023-05-27T03:02:47;12.80;99.90
33881;DHT22;20172;47.530;10.256;2023-05-27T03:05:13;12.80;99.90
33881;DHT22;20172;47.530;10.256;2023-05-27T03:07:38;12.90;99.90
33881;DHT22;20172;47.530;10.256;2023-05-27T03:10:06;12.90;99.90
33881;DHT22;20172;47.530;10.256;2023-05-27T03:12:31;12.90;99.90
33881;DHT22;20172;47.530;10.256;2023-05-27T03:14:57;12.90;99.90
33881;DHT22;20172;47.530;10.256;2023-05-27T03:17:22;12.80;99.90
33881;DHT22;20172;47.530;10.256;2023-05-27T03:19:48;12.80;99.90
33881;DHT22;20172;47.530;10.256;2023-05-27T03:22:13;12.70;99.90
33881;DHT22;20172;47.530;10.256;2023-05-27T03:24:39;12.70;99.90
33881;DHT22;20172;47.530;10.256;2023-05-27T03:27:05;12.60;99.90
33881;DHT22;20172;47.530;10.256;2023-05-27T03:29:31;12.50;99.90
33881;DHT22;20172;47.530;10.256;2023-05-27T03:31:57;12.50;99.90
33881;DHT22;20172;47.530;10.256;2023-05-27T03:34:22;12.50;99.90
33881;DHT22;20172;47.530;10.256;2023-05-27T03:36:48;12.50;99.90
33881;DHT22;20172;47.530;10.256;2023-05-27T03:39:15;12.60;99.90
33881;DHT22;20172;47.530;10.256;2023-05-27T03:41:42;12.60;99.90
33881;DHT22;20172;47.530;10.256;2023-05-27T03:44:07;12.50;99.90
33881;DHT22;20172;47.530;10.256;2023-05-27T03:46:33;12.60;99.90
33881;DHT22;20172;47.530;10.256;2023-05-27T03:48:58;12.60;99.90
33881;DHT22;20172;47.530;10.256;2023-05-27T03:51:24;12.60;99.90
33881;DHT22;20172;47.530;10.256;2023-05-27T03:53:50;12.50;99.90
33881;DHT22;20172;47.530;10.256;2023-05-27T03:56:15;12.40;99.90
33881;DHT22;20172;47.530;10.256;2023-05-27T03:58:41;12.40;99.90
33881;DHT22;20172;47.530;10.256;2023-05-27T04:01:06;12.40;99.90
33881;DHT22;20172;47.530;10.256;2023-05-27T04:03:32;12.40;99.90
33881;DHT22;20172;47.530;10.256;2023-05-27T04:05:58;12.40;99.90
33881;DHT22;20172;47.530;10.256;2023-05-27T04:08:23;12.40;99.90
33881;DHT22;20172;47.530;10.256;2023-05-27T04:10:52;12.40;99.90
33881;DHT22;20172;47.530;10.256;2023-05-27T04:13:18;12.50;99.90
33881;DHT22;20172;47.530;10.256;2023-05-27T04:15:43;12.40;99.90
33881;DHT22;20172;47.530;10.256;2023-05-27T04:18:09;12.50;99.90
33881;DHT22;20172;47.530;10.256;2023-05-27T04:20:38;12.60;99.90
33881;DHT22;20172;47.530;10.256;2023-05-27T04:23:06;12.60;99.90
33881;DHT22;20172;47.530;10.256;2023-05-27T04:25:31;12.60;99.90
33881;DHT22;20172;47.530;10.256;2023-05-27T04:27:57;12.60;99.90
33881;DHT22;20172;47.530;10.256;2023-05-27T04:30:22;12.60;99.90
33881;DHT22;20172;47.530;10.256;2023-05-27T04:32:48;12.70;99.90
33881;DHT22;20172;47.530;10.256;2023-05-27T04:35:14;12.70;99.90
33881;DHT22;20172;47.530;10.256;2023-05-27T04:37:39;12.70;99.90
33881;DHT22;20172;47.530;10.256;2023-05-27T04:40:06;12.80;99.90
33881;DHT22;20172;47.530;10.256;2023-05-27T04:42:33;12.90;99.90
33881;DHT22;20172;47.530;10.256;2023-05-27T04:45:04;12.90;99.90
33881;DHT22;20172;47.530;10.256;2023-05-27T04:47:31;13.00;99.90
33881;DHT22;20172;47.530;10.256;2023-05-27T04:49:57;13.10;99.90
33881;DHT22;20172;47.530;10.256;2023-05-27T04:52:22;13.20;99.90
33881;DHT22;20172;47.530;10.256;2023-05-27T04:54:49;13.30;99.90
33881;DHT22;20172;47.530;10.256;2023-05-27T04:57:15;13.40;99.90
33881;DHT22;20172;47.530;10.256;2023-05-27T04:59:44;13.40;99.90
33881;DHT22;20172;47.530;10.256;2023-05-27T05:02:28;13.50;99.90
33881;DHT22;20172;47.530;10.256;2023-05-27T05:05:08;13.60;99.90
33881;DHT22;20172;47.530;10.256;2023-05-27T05:07:35;13.80;99.90
33881;DHT22;20172;47.530;10.256;2023-05-27T05:10:06;13.90;99.90
33881;DHT22;20172;47.530;10.256;2023-05-27T05:12:32;14.00;99.90
33881;DHT22;20172;47.530;10.256;2023-05-27T05:14:58;14.10;99.90
33881;DHT22;20172;47.530;10.256;2023-05-27T05:17:23;14.20;99.90
33881;DHT22;20172;47.530;10.256;2023-05-27T05:19:49;14.30;99.90
33881;DHT22;20172;47.530;10.256;2023-05-27T05:22:15;14.50;99.90
33881;DHT22;20172;47.530;10.256;2023-05-27T05:24:46;14.60;99.90
33881;DHT22;20172;47.530;10.256;2023-05-27T05:27:12;14.60;99.90
33881;DHT22;20172;47.530;10.256;2023-05-27T05:29:38;14.60;99.90
33881;DHT22;20172;47.530;10.256;2023-05-27T05:32:03;14.80;99.90
33881;DHT22;20172;47.530;10.256;2023-05-27T05:34:29;14.80;99.90
33881;DHT22;20172;47.530;10.256;2023-05-27T05:36:55;14.90;99.90
33881;DHT22;20172;47.530;10.256;2023-05-27T05:39:20;15.00;99.90
33881;DHT22;20172;47.530;10.256;2023-05-27T05:41:46;15.10;99.90
33881;DHT22;20172;47.530;10.256;2023-05-27T05:44:12;15.20;99.90
33881;DHT22;20172;47.530;10.256;2023-05-27T05:46:37;15.30;99.90
33881;DHT22;20172;47.530;10.256;2023-05-27T05:49:03;15.40;99.90
33881;DHT22;20172;47.530;10.256;2023-05-27T05:51:29;15.50;99.90
33881;DHT22;20172;47.530;10.256;2023-05-27T05:53:58;15.60;99.90
33881;DHT22;20172;47.530;10.256;2023-05-27T05:56:23;15.70;99.90
33881;DHT22;20172;47.530;10.256;2023-05-27T05:58:49;15.70;99.90
33881;DHT22;20172;47.530;10.256;2023-05-27T06:01:15;15.80;99.90
33881;DHT22;20172;47.530;10.256;2023-05-27T06:03:41;15.90;99.90
33881;DHT22;20172;47.530;10.256;2023-05-27T06:06:06;15.90;99.90
33881;DHT22;20172;47.530;10.256;2023-05-27T06:08:32;15.90;99.90
33881;DHT22;20172;47.530;10.256;2023-05-27T06:10:57;16.00;99.90
33881;DHT22;20172;47.530;10.256;2023-05-27T06:13:23;16.10;99.90
33881;DHT22;20172;47.530;10.256;2023-05-27T06:15:48;16.10;99.90
33881;DHT22;20172;47.530;10.256;2023-05-27T06:18:14;16.20;99.90
33881;DHT22;20172;47.530;10.256;2023-05-27T06:20:39;16.30;99.90
33881;DHT22;20172;47.530;10.256;2023-05-27T06:23:05;16.30;99.90
33881;DHT22;20172;47.530;10.256;2023-05-27T06:25:32;16.40;99.90
33881;DHT22;20172;47.530;10.256;2023-05-27T06:27:57;16.50;99.90
33881;DHT22;20172;47.530;10.256;2023-05-27T06:30:23;16.60;99.90
33881;DHT22;20172;47.530;10.256;2023-05-27T06:32:49;16.60;99.90
33881;DHT22;20172;47.530;10.256;2023-05-27T06:35:14;16.70;99.90
33881;DHT22;20172;47.530;10.256;2023-05-27T06:37:40;16.80;99.90
33881;DHT22;20172;47.530;10.256;2023-05-27T06:40:06;16.80;99.90
33881;DHT22;20172;47.530;10.256;2023-05-27T06:42:31;16.90;99.90
33881;DHT22;20172;47.530;10.256;2023-05-27T06:44:57;17.00;99.90
33881;DHT22;20172;47.530;10.256;2023-05-27T06:47:22;17.10;99.90
33881;DHT22;20172;47.530;10.256;2023-05-27T06:49:48;17.20;99.90
33881;DHT22;20172;47.530;10.256;2023-05-27T06:52:13;17.20;99.90
33881;DHT22;20172;47.530;10.256;2023-05-27T06:54:39;17.30;99.90
33881;DHT22;20172;47.530;10.256;2023-05-27T06:57:04;17.40;99.90
33881;DHT22;20172;47.530;10.256;2023-05-27T06:59:30;17.50;99.90
33881;DHT22;20172;47.530;10.256;2023-05-27T07:01:56;17.50;99.90
33881;DHT22;20172;47.530;10.256;2023-05-27T07:04:21;17.50;99.90
33881;DHT22;20172;47.530;10.256;2023-05-27T07:06:47;17.60;99.90
33881;DHT22;20172;47.530;10.256;2023-05-27T07:09:13;17.60;99.90
33881;DHT22;20172;47.530;10.256;2023-05-27T07:11:39;17.70;99.90
33881;DHT22;20172;47.530;10.256;2023-05-27T07:14:05;17.80;99.90
33881;DHT22;20172;47.530;10.256;2023-05-27T07:16:30;17.80;99.90
33881;DHT22;20172;47.530;10.256;2023-05-27T07:18:56;17.90;99.90
33881;DHT22;20172;47.530;10.256;2023-05-27T07:21:22;17.90;99.90
33881;DHT22;20172;47.530;10.256;2023-05-27T07:23:47;18.00;99.90
33881;DHT22;20172;47.530;10.256;2023-05-27T07:26:13;18.10;99.90
33881;DHT22;20172;47.530;10.256;2023-05-27T07:28:38;18.20;99.90
33881;DHT22;20172;47.530;10.256;2023-05-27T07:31:04;18.20;99.90
33881;DHT22;20172;47.530;10.256;2023-05-27T07:33:30;18.30;99.90
33881;DHT22;20172;47.530;10.256;2023-05-27T07:35:55;18.40;99.90
33881;DHT22;20172;47.530;10.256;2023-05-27T07:38:21;18.50;99.90
33881;DHT22;20172;47.530;10.256;2023-05-27T07:40:47;18.60;99.90
33881;DHT22;20172;47.530;10.256;2023-05-27T07:43:12;18.70;99.90
33881;DHT22;20172;47.530;10.256;2023-05-27T07:45:38;18.80;99.90
33881;DHT22;20172;47.530;10.256;2023-05-27T07:48:03;18.90;99.90
33881;DHT22;20172;47.530;10.256;2023-05-27T07:50:29;18.90;99.90
33881;DHT22;20172;47.530;10.256;2023-05-27T07:52:54;18.90;99.90
33881;DHT22;20172;47.530;10.256;2023-05-27T07:55:20;19.00;99.90
33881;DHT22;20172;47.530;10.256;2023-05-27T07:57:46;19.10;99.90
33881;DHT22;20172;47.530;10.256;2023-05-27T08:00:11;19.20;99.90
33881;DHT22;20172;47.530;10.256;2023-05-27T08:02:37;19.30;99.90
33881;DHT22;20172;47.530;10.256;2023-05-27T08:05:02;19.40;99.90
33881;DHT22;20172;47.530;10.256;2023-05-27T08:07:29;19.50;99.90
33881;DHT22;20172;47.530;10.256;2023-05-27T08:09:55;19.60;99.90
33881;DHT22;20172;47.530;10.256;2023-05-27T08:12:20;19.60;99.90
33881;DHT22;20172;47.530;10.256;2023-05-27T08:14:46;19.80;99.90
33881;DHT22;20172;47.530;10.256;2023-05-27T08:17:11;19.80;99.90
33881;DHT22;20172;47.530;10.256;2023-05-27T08:19:37;19.90;99.90
33881;DHT22;20172;47.530;10.256;2023-05-27T08:22:02;20.10;99.90
33881;DHT22;20172;47.530;10.256;2023-05-27T08:24:28;20.30;99.90
33881;DHT22;20172;47.530;10.256;2023-05-27T08:26:56;20.30;99.90
33881;DHT22;20172;47.530;10.256;2023-05-27T08:29:22;20.30;99.90
33881;DHT22;20172;47.530;10.256;2023-05-27T08:31:48;20.40;99.90
33881;DHT22;20172;47.530;10.256;2023-05-27T08:34:16;20.50;99.90
33881;DHT22;20172;47.530;10.256;2023-05-27T08:36:42;20.60;99.90
33881;DHT22;20172;47.530;10.256;2023-05-27T08:39:08;20.50;99.90
33881;DHT22;20172;47.530;10.256;2023-05-27T08:41:33;20.70;99.90
33881;DHT22;20172;47.530;10.256;2023-05-27T08:43:59;20.80;99.90
33881;DHT22;20172;47.530;10.256;2023-05-27T08:46:25;21.00;99.90
33881;DHT22;20172;47.530;10.256;2023-05-27T08:48:51;21.10;99.90
33881;DHT22;20172;47.530;10.256;2023-05-27T08:51:18;21.20;99.90
33881;DHT22;20172;47.530;10.256;2023-05-27T08:53:44;21.20;99.90
33881;DHT22;20172;47.530;10.256;2023-05-27T08:56:10;21.30;99.90
33881;DHT22;20172;47.530;10.256;2023-05-27T08:58:37;21.40;99.90
33881;DHT22;20172;47.530;10.256;2023-05-27T09:01:04;21.40;99.90
33881;DHT22;20172;47.530;10.256;2023-05-27T09:03:30;21.50;99.90
33881;DHT22;20172;47.530;10.256;2023-05-27T09:05:55;21.50;99.90
33881;DHT22;20172;47.530;10.256;2023-05-27T09:08:21;21.60;99.90
33881;DHT22;20172;47.530;10.256;2023-05-27T09:10:46;21.70;99.90
33881;DHT22;20172;47.530;10.256;2023-05-27T09:13:12;21.80;99.90
33881;DHT22;20172;47.530;10.256;2023-05-27T09:15:38;21.90;99.90
33881;DHT22;20172;47.530;10.256;2023-05-27T09:18:04;22.00;99.90
33881;DHT22;20172;47.530;10.256;2023-05-27T09:20:30;22.10;99.90
33881;DHT22;20172;47.530;10.256;2023-05-27T09:22:56;22.10;99.90
33881;DHT22;20172;47.530;10.256;2023-05-27T09:25:26;22.20;99.90
33881;DHT22;20172;47.530;10.256;2023-05-27T09:27:52;22.30;99.90
33881;DHT22;20172;47.530;10.256;2023-05-27T09:30:19;22.40;99.90
33881;DHT22;20172;47.530;10.256;2023-05-27T09:32:44;22.50;99.90
33881;DHT22;20172;47.530;10.256;2023-05-27T09:35:10;22.60;99.90
33881;DHT22;20172;47.530;10.256;2023-05-27T09:37:36;22.70;99.90
33881;DHT22;20172;47.530;10.256;2023-05-27T09:40:05;22.70;99.90
33881;DHT22;20172;47.530;10.256;2023-05-27T09:42:45;22.80;99.90
33881;DHT22;20172;47.530;10.256;2023-05-27T09:45:12;22.90;99.90
33881;DHT22;20172;47.530;10.256;2023-05-27T09:47:42;23.00;99.90
33881;DHT22;20172;47.530;10.256;2023-05-27T09:50:08;23.10;99.90
33881;DHT22;20172;47.530;10.256;2023-05-27T09:52:38;23.10;99.90
33881;DHT22;20172;47.530;10.256;2023-05-27T09:55:08;23.10;99.90
33881;DHT22;20172;47.530;10.256;2023-05-27T09:57:34;23.20;99.90
33881;DHT22;20172;47.530;10.256;2023-05-27T10:00:01;23.30;99.90
33881;DHT22;20172;47.530;10.256;2023-05-27T10:02:27;23.40;99.90
33881;DHT22;20172;47.530;10.256;2023-05-27T10:04:53;23.50;99.90
33881;DHT22;20172;47.530;10.256;2023-05-27T10:07:19;23.50;99.90
33881;DHT22;20172;47.530;10.256;2023-05-27T10:09:48;23.60;99.90
33881;DHT22;20172;47.530;10.256;2023-05-27T10:12:14;23.70;99.90
33881;DHT22;20172;47.530;10.256;2023-05-27T10:14:40;23.70;99.90
33881;DHT22;20172;47.530;10.256;2023-05-27T10:17:05;23.70;99.90
33881;DHT22;20172;47.530;10.256;2023-05-27T10:19:31;23.80;99.90
33881;DHT22;20172;47.530;10.256;2023-05-27T10:21:56;23.80;99.90
33881;DHT22;20172;47.530;10.256;2023-05-27T10:24:32;23.70;99.90
33881;DHT22;20172;47.530;10.256;2023-05-27T10:27:01;23.90;99.90
33881;DHT22;20172;47.530;10.256;2023-05-27T10:29:37;24.10;99.90
33881;DHT22;20172;47.530;10.256;2023-05-27T10:32:03;24.20;99.90
33881;DHT22;20172;47.530;10.256;2023-05-27T10:34:36;24.20;99.90
33881;DHT22;20172;47.530;10.256;2023-05-27T10:37:01;24.20;99.90
33881;DHT22;20172;47.530;10.256;2023-05-27T10:39:27;24.30;99.90
33881;DHT22;20172;47.530;10.256;2023-05-27T10:41:53;24.50;99.90
33881;DHT22;20172;47.530;10.256;2023-05-27T10:44:28;24.50;99.90
33881;DHT22;20172;47.530;10.256;2023-05-27T10:49:29;24.60;99.90
33881;DHT22;20172;47.530;10.256;2023-05-27T10:52:11;24.80;99.90
33881;DHT22;20172;47.530;10.256;2023-05-27T10:54:38;24.90;99.90
33881;DHT22;20172;47.530;10.256;2023-05-27T10:57:04;25.00;99.90
33881;DHT22;20172;47.530;10.256;2023-05-27T10:59:35;25.10;99.90
33881;DHT22;20172;47.530;10.256;2023-05-27T11:02:03;25.20;99.90
33881;DHT22;20172;47.530;10.256;2023-05-27T11:04:36;25.30;99.90
33881;DHT22;20172;47.530;10.256;2023-05-27T11:07:03;25.40;99.90
33881;DHT22;20172;47.530;10.256;2023-05-27T11:09:29;25.50;99.90
33881;DHT22;20172;47.530;10.256;2023-05-27T11:12:00;25.60;99.90
33881;DHT22;20172;47.530;10.256;2023-05-27T11:14:27;25.60;99.90
33881;DHT22;20172;47.530;10.256;2023-05-27T11:16:52;25.90;99.90
33881;DHT22;20172;47.530;10.256;2023-05-27T11:19:19;26.00;99.90
33881;DHT22;20172;47.530;10.256;2023-05-27T11:21:45;25.80;99.90
33881;DHT22;20172;47.530;10.256;2023-05-27T11:24:15;25.70;99.90
33881;DHT22;20172;47.530;10.256;2023-05-27T11:26:42;25.60;99.90
33881;DHT22;20172;47.530;10.256;2023-05-27T11:29:07;25.50;99.90
33881;DHT22;20172;47.530;10.256;2023-05-27T11:31:33;25.40;99.90
33881;DHT22;20172;47.530;10.256;2023-05-27T11:33:58;25.30;99.90
33881;DHT22;20172;47.530;10.256;2023-05-27T11:36:27;25.10;99.90
33881;DHT22;20172;47.530;10.256;2023-05-27T11:38:56;24.90;99.90
33881;DHT22;20172;47.530;10.256;2023-05-27T11:41:23;24.80;99.90
33881;DHT22;20172;47.530;10.256;2023-05-27T11:43:51;24.60;99.90
33881;DHT22;20172;47.530;10.256;2023-05-27T11:46:16;24.60;99.90
33881;DHT22;20172;47.530;10.256;2023-05-27T11:48:42;24.50;99.90
33881;DHT22;20172;47.530;10.256;2023-05-27T11:51:08;24.40;99.90
33881;DHT22;20172;47.530;10.256;2023-05-27T11:53:41;24.30;99.90
33881;DHT22;20172;47.530;10.256;2023-05-27T11:56:09;24.40;99.90
33881;DHT22;20172;47.530;10.256;2023-05-27T11:58:34;24.40;99.90
33881;DHT22;20172;47.530;10.256;2023-05-27T12:01:02;24.70;99.90
33881;DHT22;20172;47.530;10.256;2023-05-27T12:03:27;25.00;99.90
33881;DHT22;20172;47.530;10.256;2023-05-27T12:05:53;25.30;99.90
33881;DHT22;20172;47.530;10.256;2023-05-27T12:08:18;25.60;99.90
33881;DHT22;20172;47.530;10.256;2023-05-27T12:10:44;25.90;99.90
33881;DHT22;20172;47.530;10.256;2023-05-27T12:13:15;26.00;99.80
33881;DHT22;20172;47.530;10.256;2023-05-27T12:15:40;25.80;99.00
33881;DHT22;20172;47.530;10.256;2023-05-27T12:18:06;25.70;99.40
33881;DHT22;20172;47.530;10.256;2023-05-27T12:20:32;25.60;99.60
33881;DHT22;20172;47.530;10.256;2023-05-27T12:22:58;25.80;99.60
33881;DHT22;20172;47.530;10.256;2023-05-27T12:25:23;26.10;99.60
33881;DHT22;20172;47.530;10.256;2023-05-27T12:27:49;26.30;98.50
33881;DHT22;20172;47.530;10.256;2023-05-27T12:30:15;26.50;98.80
33881;DHT22;20172;47.530;10.256;2023-05-27T12:32:40;26.60;98.20
33881;DHT22;20172;47.530;10.256;2023-05-27T12:35:07;26.70;98.00
33881;DHT22;20172;47.530;10.256;2023-05-27T12:37:33;26.80;97.40
33881;DHT22;20172;47.530;10.256;2023-05-27T12:39:58;26.90;98.60
33881;DHT22;20172;47.530;10.256;2023-05-27T12:42:23;27.00;98.00
33881;DHT22;20172;47.530;10.256;2023-05-27T12:44:49;27.00;96.70
33881;DHT22;20172;47.530;10.256;2023-05-27T12:47:15;27.10;97.00
33881;DHT22;20172;47.530;10.256;2023-05-27T12:49:40;27.10;97.00
33881;DHT22;20172;47.530;10.256;2023-05-27T12:52:07;27.20;97.10
33881;DHT22;20172;47.530;10.256;2023-05-27T12:54:33;27.30;96.60
33881;DHT22;20172;47.530;10.256;2023-05-27T12:56:59;27.30;96.50
33881;DHT22;20172;47.530;10.256;2023-05-27T12:59:26;27.40;96.40
33881;DHT22;20172;47.530;10.256;2023-05-27T13:01:52;27.50;96.20
33881;DHT22;20172;47.530;10.256;2023-05-27T13:04:17;27.50;95.60
33881;DHT22;20172;47.530;10.256;2023-05-27T13:06:43;27.60;95.50
33881;DHT22;20172;47.530;10.256;2023-05-27T13:09:08;27.80;95.60
33881;DHT22;20172;47.530;10.256;2023-05-27T13:11:34;27.90;95.20
33881;DHT22;20172;47.530;10.256;2023-05-27T13:14:00;27.90;94.90
33881;DHT22;20172;47.530;10.256;2023-05-27T13:16:25;27.90;95.20
33881;DHT22;20172;47.530;10.256;2023-05-27T13:18:51;27.80;94.90
33881;DHT22;20172;47.530;10.256;2023-05-27T13:21:17;27.80;95.10
33881;DHT22;20172;47.530;10.256;2023-05-27T13:23:42;27.60;94.30
33881;DHT22;20172;47.530;10.256;2023-05-27T13:26:08;27.60;95.20
33881;DHT22;20172;47.530;10.256;2023-05-27T13:28:33;27.70;95.10
33881;DHT22;20172;47.530;10.256;2023-05-27T13:30:59;27.80;93.90
33881;DHT22;20172;47.530;10.256;2023-05-27T13:33:24;27.90;93.90
33881;DHT22;20172;47.530;10.256;2023-05-27T13:35:50;27.90;93.80
33881;DHT22;20172;47.530;10.256;2023-05-27T13:38:15;28.00;93.80
33881;DHT22;20172;47.530;10.256;2023-05-27T13:40:41;27.90;93.40
33881;DHT22;20172;47.530;10.256;2023-05-27T13:43:07;27.90;93.40
33881;DHT22;20172;47.530;10.256;2023-05-27T13:45:33;27.90;93.50
33881;DHT22;20172;47.530;10.256;2023-05-27T13:47:58;28.00;93.80
33881;DHT22;20172;47.530;10.256;2023-05-27T13:50:24;28.10;93.80
33881;DHT22;20172;47.530;10.256;2023-05-27T13:52:49;28.10;92.50
33881;DHT22;20172;47.530;10.256;2023-05-27T13:55:15;27.90;92.50
33881;DHT22;20172;47.530;10.256;2023-05-27T13:57:40;27.80;92.50
33881;DHT22;20172;47.530;10.256;2023-05-27T14:00:06;27.70;92.80
33881;DHT22;20172;47.530;10.256;2023-05-27T14:02:32;27.80;93.00
33881;DHT22;20172;47.530;10.256;2023-05-27T14:04:57;27.90;93.40
33881;DHT22;20172;47.530;10.256;2023-05-27T14:07:23;27.80;92.70
33881;DHT22;20172;47.530;10.256;2023-05-27T14:09:49;27.90;92.40
33881;DHT22;20172;47.530;10.256;2023-05-27T14:12:14;27.90;92.40
33881;DHT22;20172;47.530;10.256;2023-05-27T14:14:40;27.80;91.40
33881;DHT22;20172;47.530;10.256;2023-05-27T14:17:06;27.90;92.40
33881;DHT22;20172;47.530;10.256;2023-05-27T14:19:32;27.90;91.70
33881;DHT22;20172;47.530;10.256;2023-05-27T14:21:58;27.90;91.60
33881;DHT22;20172;47.530;10.256;2023-05-27T14:24:23;28.00;92.20
33881;DHT22;20172;47.530;10.256;2023-05-27T14:26:49;28.10;92.10
33881;DHT22;20172;47.530;10.256;2023-05-27T14:29:14;28.10;91.40
33881;DHT22;20172;47.530;10.256;2023-05-27T14:31:40;28.10;91.20
33881;DHT22;20172;47.530;10.256;2023-05-27T14:34:05;28.10;90.90
33881;DHT22;20172;47.530;10.256;2023-05-27T14:36:31;28.00;90.90
33881;DHT22;20172;47.530;10.256;2023-05-27T14:38:56;27.80;91.70
33881;DHT22;20172;47.530;10.256;2023-05-27T14:41:22;27.80;91.40
33881;DHT22;20172;47.530;10.256;2023-05-27T14:43:47;27.80;91.90
33881;DHT22;20172;47.530;10.256;2023-05-27T14:46:15;27.80;91.10
33881;DHT22;20172;47.530;10.256;2023-05-27T14:48:41;27.80;90.60
33881;DHT22;20172;47.530;10.256;2023-05-27T14:51:06;27.80;90.80
33881;DHT22;20172;47.530;10.256;2023-05-27T14:53:32;27.80;90.80
33881;DHT22;20172;47.530;10.256;2023-05-27T14:55:57;27.80;90.80
33881;DHT22;20172;47.530;10.256;2023-05-27T14:58:23;27.70;91.30
33881;DHT22;20172;47.530;10.256;2023-05-27T15:00:48;27.60;90.40
33881;DHT22;20172;47.530;10.256;2023-05-27T15:03:14;27.60;90.90
33881;DHT22;20172;47.530;10.256;2023-05-27T15:05:40;27.60;91.40
33881;DHT22;20172;47.530;10.256;2023-05-27T15:08:05;27.60;90.60
33881;DHT22;20172;47.530;10.256;2023-05-27T15:10:34;27.50;90.90
33881;DHT22;20172;47.530;10.256;2023-05-27T15:13:00;27.30;91.20
33881;DHT22;20172;47.530;10.256;2023-05-27T15:15:26;27.20;90.80
33881;DHT22;20172;47.530;10.256;2023-05-27T15:17:51;27.20;91.70